createdAt,value
2023-07-24T00:08:42.257Z,96400.23
2023-07-24T00:18:46.745Z,96398.34
2023-07-24T00:28:51.132Z,96395.84
2023-07-24T00:39:53.275Z,96388.20
2023-07-24T00:49:59.403Z,96377.25
2023-07-24T01:00:05.093Z,96377.52
2023-07-24T01:10:08.635Z,96376.76
2023-07-24T01:20:14.079Z,96372.83
2023-07-24T01:30:22.330Z,96372.13
2023-07-24T01:40:25.761Z,96370.63
2023-07-24T01:50:28.817Z,96362.20
2023-07-24T02:00:32.737Z,96356.86
2023-07-24T02:10:39.001Z,96349.46
2023-07-24T02:20:42.039Z,96343.73
2023-07-24T02:30:45.155Z,96333.27
2023-07-24T02:40:48.409Z,96334.84
2023-07-24T02:50:51.688Z,96330.70
2023-07-24T03:00:54.762Z,96329.08
2023-07-24T03:10:58.763Z,96317.75
2023-07-24T03:21:04.287Z,96314.94
2023-07-24T03:31:07.540Z,96314.42
2023-07-24T03:41:10.703Z,96315.23
2023-07-24T03:51:13.788Z,96312.52
2023-07-24T04:01:16.951Z,96310.07
2023-07-24T04:11:20.857Z,96316.45
2023-07-24T04:21:24.886Z,96312.19
2023-07-24T04:31:27.895Z,96306.96
2023-07-24T04:41:31.799Z,96312.86
2023-07-24T04:51:36.702Z,96315.27
2023-07-24T05:01:39.888Z,96311.08
2023-07-24T05:11:46.163Z,96297.58
2023-07-24T05:21:49.800Z,96299.42
2023-07-24T05:31:53.136Z,96295.00
2023-07-24T05:41:56.362Z,96295.66
2023-07-24T05:51:59.501Z,96291.16
2023-07-24T06:02:02.588Z,96289.64
2023-07-24T06:12:06.079Z,96291.65
2023-07-24T06:22:09.186Z,96294.83
2023-07-24T06:32:12.505Z,96295.73
2023-07-24T06:42:15.593Z,96291.26
2023-07-24T06:52:19.363Z,96295.88
2023-07-24T07:02:22.633Z,96299.42
2023-07-24T07:12:25.678Z,96295.23
2023-07-24T07:22:28.757Z,96288.70
2023-07-24T07:32:31.809Z,96285.92
2023-07-24T07:42:35.290Z,96294.74
2023-07-24T07:52:40.224Z,96290.73
2023-07-24T08:02:43.338Z,96274.81
2023-07-24T08:12:46.683Z,96263.49
2023-07-24T08:22:49.823Z,96265.73
2023-07-24T08:32:54.585Z,96257.48
2023-07-24T08:42:58.000Z,96255.44
2023-07-24T08:53:02.142Z,96240.30
2023-07-24T09:03:05.627Z,96246.20
2023-07-24T09:13:12.872Z,96244.05
2023-07-24T09:23:19.780Z,96227.34
2023-07-24T09:33:38.445Z,96222.54
2023-07-24T09:43:43.014Z,96214.02
2023-07-24T09:53:58.753Z,96203.95
2023-07-24T10:04:03.101Z,96186.81
2023-07-24T10:14:06.358Z,96179.09
2023-07-24T10:24:09.725Z,96173.45
2023-07-24T10:34:12.782Z,96174.27
2023-07-24T10:44:16.026Z,96169.05
2023-07-24T10:54:22.754Z,96162.25
2023-07-24T11:04:25.866Z,96154.52
2023-07-24T11:14:29.000Z,96132.79
2023-07-24T11:24:32.266Z,96120.02
2023-07-24T11:35:01.204Z,96110.70
2023-07-24T11:45:04.976Z,96095.67
2023-07-24T11:55:09.258Z,96086.77
2023-07-24T12:05:12.366Z,96078.80
2023-07-24T12:15:16.184Z,96069.30
2023-07-24T12:25:19.396Z,96048.14
2023-07-24T12:35:22.427Z,96025.75
2023-07-24T12:45:25.498Z,96006.76
2023-07-24T12:55:30.754Z,95992.90
2023-07-24T13:05:34.214Z,95983.94
2023-07-24T13:15:37.297Z,95976.10
2023-07-24T13:25:40.425Z,95970.94
2023-07-24T13:35:43.437Z,95953.80
2023-07-24T13:45:46.781Z,95923.02
2023-07-24T13:55:49.955Z,95906.58
2023-07-24T14:05:53.047Z,95882.92
2023-07-24T14:15:56.136Z,95865.11
2023-07-24T14:25:59.500Z,95850.36
2023-07-24T14:36:05.107Z,95844.33
2023-07-24T14:46:08.575Z,95831.80
2023-07-24T14:56:11.704Z,95813.20
2023-07-24T15:06:14.755Z,95791.86
2023-07-24T15:16:18.763Z,95763.63
2023-07-24T15:26:26.288Z,95749.21
2023-07-24T15:36:30.242Z,95724.38
2023-07-24T15:46:33.575Z,95706.39
2023-07-24T15:56:37.332Z,95688.93
2023-07-24T16:06:40.713Z,95693.59
2023-07-24T16:16:44.060Z,95687.59
2023-07-24T16:26:48.724Z,95680.70
2023-07-24T16:36:51.879Z,95674.45
2023-07-24T16:47:11.674Z,95669.28
2023-07-24T16:57:16.921Z,95661.48
2023-07-24T17:07:20.085Z,95650.47
2023-07-24T17:17:23.899Z,95635.30
2023-07-24T17:27:27.050Z,95623.41
2023-07-24T17:47:40.714Z,95639.03
2023-07-24T17:57:48.065Z,95653.14
2023-07-24T18:07:52.687Z,95672.11
2023-07-24T18:17:58.276Z,95725.80
2023-07-24T18:28:01.554Z,95791.25
2023-07-24T18:38:05.343Z,95805.98
2023-07-24T18:48:10.593Z,95850.86
2023-07-24T18:58:13.993Z,95894.71
2023-07-24T19:08:17.069Z,95892.52
2023-07-24T19:18:20.430Z,95872.20
2023-07-24T19:28:23.906Z,95867.06
2023-07-24T19:38:27.130Z,95811.98
2023-07-24T19:48:30.451Z,95805.52
2023-07-24T19:58:37.037Z,95753.91
2023-07-24T20:08:40.604Z,95795.34
2023-07-24T20:18:44.129Z,95744.70
2023-07-24T20:28:48.262Z,95776.81
2023-07-24T20:38:51.503Z,95950.70
2023-07-24T20:48:54.708Z,95895.66
2023-07-24T20:58:57.804Z,95830.05
2023-07-24T21:09:01.063Z,95768.81
2023-07-24T21:19:04.868Z,95683.98
2023-07-24T21:29:08.190Z,95658.42
2023-07-24T21:39:11.240Z,95665.52
2023-07-24T21:49:14.301Z,95684.88
2023-07-24T21:59:42.752Z,95686.55
2023-07-24T22:09:45.873Z,95681.58
2023-07-24T22:19:49.761Z,95696.55
2023-07-24T22:29:54.158Z,95668.67
2023-07-24T22:39:58.368Z,95680.02
2023-07-24T22:50:01.565Z,95696.95
2023-07-24T23:00:06.090Z,95712.22
2023-07-24T23:10:09.628Z,95722.89
2023-07-24T23:20:13.010Z,95719.63
2023-07-24T23:30:16.074Z,95724.70
2023-07-24T23:40:19.059Z,95719.13
2023-07-24T23:50:22.541Z,95701.77
